createdAt,value
2018-06-14T00:02:06.734Z,10.23
2018-06-14T00:04:35.290Z,10.90
2018-06-14T00:07:03.867Z,11.27
2018-06-14T00:09:32.418Z,12.27
2018-06-14T00:12:00.633Z,13.33
2018-06-14T00:14:29.653Z,14.23
2018-06-14T00:16:58.238Z,14.20
2018-06-14T00:19:26.820Z,11.17
2018-06-14T00:21:55.401Z,10.07
2018-06-14T00:24:24.482Z,12.87
2018-06-14T00:26:53.021Z,9.97
2018-06-14T00:29:21.243Z,13.90
2018-06-14T00:31:50.394Z,11.83
2018-06-14T00:34:19.546Z,11.80
2018-06-14T00:36:48.131Z,11.27
2018-06-14T00:39:16.725Z,9.23
2018-06-14T00:41:45.257Z,9.97
2018-06-14T00:44:14.436Z,7.73
2018-06-14T00:46:43.017Z,7.80
2018-06-14T00:49:11.228Z,8.33
2018-06-14T00:51:39.798Z,10.77
2018-06-14T00:54:08.418Z,10.30
2018-06-14T00:56:48.482Z,10.40
2018-06-14T00:59:17.130Z,9.03
2018-06-14T01:01:46.060Z,11.77
2018-06-14T01:04:14.680Z,10.13
2018-06-14T01:06:44.347Z,9.47
2018-06-14T01:09:12.902Z,8.97
2018-06-14T01:11:41.916Z,7.53
2018-06-14T01:14:10.500Z,11.77
2018-06-14T01:16:39.061Z,10.17
2018-06-14T01:19:07.969Z,10.90
2018-06-14T01:21:36.525Z,7.37
2018-06-14T01:24:04.786Z,7.40
2018-06-14T01:26:33.329Z,7.93
2018-06-14T01:29:01.930Z,7.10
2018-06-14T01:31:30.527Z,9.50
2018-06-14T01:33:59.749Z,11.80
2018-06-14T01:36:28.627Z,10.30
2018-06-14T01:38:57.666Z,8.30
2018-06-14T01:41:27.138Z,9.60
2018-06-14T01:43:55.395Z,8.47
2018-06-14T01:46:24.898Z,7.83
2018-06-14T01:48:53.485Z,8.97
2018-06-14T01:51:22.646Z,10.17
2018-06-14T01:53:51.213Z,7.37
2018-06-14T01:56:19.723Z,7.87
2018-06-14T01:58:48.294Z,6.93
2018-06-14T02:01:16.824Z,11.00
2018-06-14T02:03:46.088Z,10.07
2018-06-14T02:06:14.645Z,12.27
2018-06-14T02:08:43.193Z,11.67
2018-06-14T02:11:11.709Z,8.43
2018-06-14T02:13:40.981Z,7.63
2018-06-14T02:16:10.112Z,8.70
2018-06-14T02:18:40.399Z,10.57
2018-06-14T02:21:09.369Z,12.73
2018-06-14T02:23:37.922Z,7.87
2018-06-14T02:26:07.347Z,12.43
2018-06-14T02:28:35.931Z,8.70
2018-06-14T02:31:04.468Z,10.47
2018-06-14T02:33:32.708Z,10.67
2018-06-14T02:36:01.298Z,10.17
2018-06-14T02:38:29.817Z,10.87
2018-06-14T02:40:58.377Z,9.17
2018-06-14T02:43:27.526Z,8.17
2018-06-14T02:45:56.081Z,8.63
2018-06-14T02:48:24.265Z,7.47
2018-06-14T02:50:52.786Z,8.90
2018-06-14T02:53:21.317Z,7.93
2018-06-14T02:55:50.493Z,9.83
2018-06-14T02:58:20.189Z,8.90
2018-06-14T03:00:49.426Z,11.03
2018-06-14T03:03:17.972Z,13.67
2018-06-14T03:05:47.223Z,13.10
2018-06-14T03:08:15.719Z,15.83
2018-06-14T03:10:44.285Z,14.37
2018-06-14T03:13:12.827Z,11.43
2018-06-14T03:15:41.442Z,12.00
2018-06-14T03:18:09.661Z,13.60
2018-06-14T03:20:38.226Z,12.20
2018-06-14T03:23:06.815Z,13.37
2018-06-14T03:25:35.393Z,12.13
2018-06-14T03:28:03.973Z,12.70
2018-06-14T03:30:32.566Z,11.40
2018-06-14T03:33:01.097Z,12.23
2018-06-14T03:35:29.641Z,12.40
2018-06-14T03:37:58.180Z,11.17
2018-06-14T03:40:26.818Z,11.33
2018-06-14T03:42:55.422Z,10.97
2018-06-14T03:45:28.410Z,10.87
2018-06-14T03:47:56.994Z,12.37
2018-06-14T03:50:25.552Z,10.27
2018-06-14T03:52:54.163Z,12.43
2018-06-14T03:55:22.738Z,10.37
2018-06-14T03:57:51.277Z,12.00
2018-06-14T04:00:19.834Z,13.57
2018-06-14T04:02:48.346Z,13.43
2018-06-14T04:05:16.970Z,12.70
2018-06-14T04:07:45.509Z,9.77
2018-06-14T04:10:14.083Z,12.13
2018-06-14T04:12:42.256Z,14.33
2018-06-14T04:15:10.472Z,10.60
2018-06-14T04:17:39.489Z,10.83
2018-06-14T04:20:08.021Z,15.53
2018-06-14T04:22:36.239Z,14.73
2018-06-14T04:25:05.028Z,9.23
2018-06-14T04:27:33.625Z,10.67
2018-06-14T04:30:02.169Z,13.07
2018-06-14T04:32:30.674Z,11.77
2018-06-14T04:34:59.267Z,12.50
2018-06-14T04:37:27.848Z,12.13
2018-06-14T04:39:56.422Z,13.83
2018-06-14T04:42:24.970Z,14.03
2018-06-14T04:44:53.193Z,13.00
2018-06-14T04:47:21.745Z,10.00
2018-06-14T04:49:50.254Z,10.70
2018-06-14T04:52:18.866Z,11.57
2018-06-14T04:54:48.742Z,14.70
2018-06-14T04:57:17.671Z,12.43
2018-06-14T04:59:46.200Z,15.17
2018-06-14T05:02:14.803Z,11.43
2018-06-14T05:04:46.782Z,11.20
2018-06-14T05:07:16.356Z,14.93
2018-06-14T05:09:45.966Z,11.27
2018-06-14T05:12:14.850Z,14.47
2018-06-14T05:14:44.583Z,12.97
2018-06-14T05:17:13.198Z,13.53
2018-06-14T05:19:42.348Z,12.73
2018-06-14T05:22:11.133Z,13.80
2018-06-14T05:24:39.583Z,14.37
2018-06-14T05:27:08.298Z,12.93
2018-06-14T05:29:36.521Z,12.77
2018-06-14T05:32:05.313Z,13.40
2018-06-14T05:34:33.901Z,14.57
2018-06-14T05:37:02.480Z,12.57
2018-06-14T05:39:31.028Z,19.53
2018-06-14T05:41:59.621Z,13.20
2018-06-14T05:44:28.233Z,13.57
2018-06-14T05:46:56.800Z,14.90
2018-06-14T05:49:25.949Z,13.43
2018-06-14T05:51:54.506Z,18.40
2018-06-14T05:54:23.028Z,14.57
2018-06-14T05:56:51.691Z,17.13
2018-06-14T05:59:20.327Z,13.80
2018-06-14T06:01:48.991Z,15.67
2018-06-14T06:04:17.188Z,14.93
2018-06-14T06:06:45.745Z,16.53
2018-06-14T06:09:14.282Z,14.73
2018-06-14T06:11:42.830Z,13.30
2018-06-14T06:14:11.342Z,13.80
2018-06-14T06:16:39.910Z,13.43
2018-06-14T06:19:08.478Z,13.60
2018-06-14T06:21:36.697Z,13.07
2018-06-14T06:24:05.231Z,15.83
2018-06-14T06:26:33.465Z,14.20
2018-06-14T06:29:02.539Z,11.93
2018-06-14T06:31:31.081Z,14.47
2018-06-14T06:33:59.307Z,11.17
2018-06-14T06:36:28.023Z,12.03
2018-06-14T06:38:56.567Z,13.67
2018-06-14T06:41:25.147Z,15.33
2018-06-14T06:43:53.694Z,17.93
2018-06-14T06:46:22.283Z,13.43
2018-06-14T06:48:50.509Z,13.13
2018-06-14T06:51:19.190Z,10.10
2018-06-14T06:53:47.888Z,11.93
2018-06-14T06:56:16.495Z,12.23
2018-06-14T06:58:45.525Z,13.00
2018-06-14T07:01:13.729Z,12.07
2018-06-14T07:03:42.270Z,14.10
2018-06-14T07:06:10.557Z,10.97
2018-06-14T07:08:39.177Z,11.53
2018-06-14T07:11:08.389Z,15.03
2018-06-14T07:13:36.950Z,13.17
2018-06-14T07:16:06.286Z,11.77
2018-06-14T07:18:34.830Z,12.63
2018-06-14T07:21:03.399Z,13.63
2018-06-14T07:23:31.987Z,12.60
2018-06-14T07:26:00.517Z,15.47
2018-06-14T07:28:29.100Z,12.83
2018-06-14T07:30:58.120Z,14.30
2018-06-14T07:33:26.675Z,15.60
2018-06-14T07:35:55.185Z,11.03
2018-06-14T07:38:23.802Z,9.33
2018-06-14T07:40:52.308Z,14.60
2018-06-14T07:43:20.868Z,15.20
2018-06-14T07:45:49.405Z,14.50
2018-06-14T07:48:17.974Z,10.30
2018-06-14T07:50:46.490Z,7.53
2018-06-14T07:53:15.040Z,9.23
2018-06-14T07:55:43.642Z,11.03
2018-06-14T07:58:12.844Z,6.90
2018-06-14T08:00:41.950Z,6.40
2018-06-14T08:03:10.493Z,7.53
2018-06-14T08:05:39.014Z,6.03
2018-06-14T08:08:07.759Z,7.17
2018-06-14T08:10:36.309Z,7.33
2018-06-14T08:13:05.151Z,6.30
2018-06-14T08:15:33.684Z,9.90
2018-06-14T08:18:02.540Z,6.03
2018-06-14T08:20:31.063Z,7.77
2018-06-14T08:22:59.784Z,7.63
2018-06-14T08:25:28.291Z,8.17
2018-06-14T08:27:56.833Z,9.33
2018-06-14T08:30:25.349Z,6.83
2018-06-14T08:32:53.909Z,10.50
2018-06-14T08:35:22.461Z,5.93
2018-06-14T08:37:50.703Z,4.83
2018-06-14T08:40:19.269Z,8.03
2018-06-14T08:42:47.796Z,6.90
2018-06-14T08:45:16.611Z,4.43
2018-06-14T08:47:45.208Z,8.33
2018-06-14T08:50:13.747Z,12.57
2018-06-14T08:52:42.314Z,7.67
2018-06-14T08:55:10.867Z,9.27
2018-06-14T08:57:39.509Z,11.53
2018-06-14T09:00:08.331Z,8.43
2018-06-14T09:02:40.396Z,8.00
2018-06-14T09:05:09.303Z,9.23
2018-06-14T09:07:37.837Z,7.37
2018-06-14T09:10:06.410Z,9.87
2018-06-14T09:12:35.055Z,11.90
2018-06-14T09:15:03.886Z,9.57
2018-06-14T09:17:32.435Z,10.10
2018-06-14T09:20:01.091Z,9.77
2018-06-14T09:22:29.657Z,9.27
2018-06-14T09:25:01.875Z,6.47
2018-06-14T09:27:30.633Z,8.90
2018-06-14T09:29:59.213Z,5.87
2018-06-14T09:32:27.766Z,6.00
2018-06-14T09:34:56.359Z,5.17
2018-06-14T09:37:24.897Z,5.20
2018-06-14T09:39:53.460Z,6.67
2018-06-14T09:42:22.621Z,9.67
2018-06-14T09:44:52.011Z,31.10
2018-06-14T09:47:20.617Z,8.47
2018-06-14T09:49:49.181Z,7.90
2018-06-14T09:52:17.739Z,5.77
2018-06-14T09:54:46.324Z,9.93
2018-06-14T09:57:14.884Z,8.37
2018-06-14T09:59:43.546Z,7.30
2018-06-14T10:02:11.933Z,6.50
2018-06-14T10:04:40.246Z,6.20
2018-06-14T10:07:08.765Z,10.77
2018-06-14T10:09:37.319Z,7.37
2018-06-14T10:12:05.948Z,9.47
2018-06-14T10:14:35.205Z,6.50
2018-06-14T10:17:05.317Z,9.67
2018-06-14T10:19:35.761Z,5.30
2018-06-14T10:22:04.356Z,5.90
2018-06-14T10:24:32.919Z,6.50
2018-06-14T10:27:01.636Z,7.83
2018-06-14T10:29:31.518Z,11.53
2018-06-14T10:32:02.326Z,4.80
2018-06-14T10:34:36.254Z,6.53
2018-06-14T10:37:05.391Z,9.70
2018-06-14T10:39:34.017Z,9.03
2018-06-14T10:42:02.332Z,6.20
2018-06-14T10:44:31.457Z,6.90
2018-06-14T10:46:59.969Z,5.00
2018-06-14T10:49:28.198Z,7.67
2018-06-14T10:51:56.694Z,6.87
2018-06-14T10:54:25.770Z,6.53
2018-06-14T10:56:54.550Z,4.90
2018-06-14T10:59:23.158Z,5.20
2018-06-14T11:01:51.732Z,8.33
2018-06-14T11:04:20.957Z,6.33
2018-06-14T11:06:49.498Z,9.13
2018-06-14T11:09:18.100Z,6.67
2018-06-14T11:11:46.594Z,6.47
2018-06-14T11:14:15.857Z,4.87
2018-06-14T11:16:44.410Z,8.27
2018-06-14T11:19:12.633Z,5.43
2018-06-14T11:21:41.168Z,7.87
2018-06-14T11:24:09.423Z,7.60
2018-06-14T11:26:38.031Z,9.00
2018-06-14T11:29:06.335Z,7.03
2018-06-14T11:31:34.872Z,8.07
2018-06-14T11:34:03.479Z,5.10
2018-06-14T11:36:31.729Z,6.07
2018-06-14T11:39:00.970Z,4.37
2018-06-14T11:41:29.180Z,6.63
2018-06-14T11:43:58.576Z,6.47
2018-06-14T11:46:27.113Z,6.07
2018-06-14T11:48:55.641Z,8.10
2018-06-14T11:51:24.750Z,4.60
2018-06-14T11:53:54.707Z,5.70
2018-06-14T11:56:24.709Z,9.13
2018-06-14T11:58:53.242Z,6.23
2018-06-14T12:01:24.100Z,7.23
2018-06-14T12:03:53.077Z,6.17
2018-06-14T12:06:21.649Z,7.40
2018-06-14T12:08:50.150Z,5.40
2018-06-14T12:11:18.698Z,6.90
2018-06-14T12:13:46.913Z,7.87
2018-06-14T12:16:15.455Z,6.13
2018-06-14T12:18:43.643Z,6.70
2018-06-14T12:21:12.176Z,7.80
2018-06-14T12:23:41.257Z,4.57
2018-06-14T12:26:09.802Z,8.87
2018-06-14T12:28:39.894Z,5.73
2018-06-14T12:31:08.466Z,8.37
2018-06-14T12:33:37.010Z,6.60
2018-06-14T12:36:06.050Z,6.37
2018-06-14T12:38:34.574Z,6.67
2018-06-14T12:41:03.131Z,7.23
2018-06-14T12:43:31.965Z,8.73
2018-06-14T12:46:00.534Z,5.17
2018-06-14T12:48:29.071Z,6.10
2018-06-14T12:50:57.631Z,8.03
2018-06-14T12:53:27.385Z,4.90
2018-06-14T12:55:56.687Z,6.73
2018-06-14T12:58:25.175Z,6.60
2018-06-14T13:00:54.445Z,6.30
2018-06-14T13:03:23.045Z,9.27
2018-06-14T13:05:51.595Z,10.63
2018-06-14T13:08:20.173Z,5.83
2018-06-14T13:10:48.726Z,6.30
2018-06-14T13:13:16.941Z,4.67
2018-06-14T13:15:45.737Z,6.33
2018-06-14T13:18:14.530Z,5.67
2018-06-14T13:20:43.204Z,6.33
2018-06-14T13:23:11.852Z,6.87
2018-06-14T13:25:40.087Z,5.97
2018-06-14T13:28:08.656Z,5.40
2018-06-14T13:30:37.234Z,5.73
2018-06-14T13:33:06.010Z,9.40
2018-06-14T13:35:34.546Z,5.40
2018-06-14T13:38:03.129Z,5.43
2018-06-14T13:40:32.070Z,5.33
2018-06-14T13:43:00.634Z,7.50
2018-06-14T13:45:29.207Z,5.77
2018-06-14T13:47:57.413Z,5.20
2018-06-14T13:50:26.000Z,7.07
2018-06-14T13:52:54.594Z,4.60
2018-06-14T13:55:23.091Z,7.17
2018-06-14T13:57:51.671Z,9.03
2018-06-14T14:00:20.194Z,7.93
2018-06-14T14:02:48.737Z,6.27
2018-06-14T14:05:17.265Z,5.83
2018-06-14T14:07:45.500Z,7.47
2018-06-14T14:10:14.013Z,9.80
2018-06-14T14:12:42.546Z,7.60
2018-06-14T14:15:11.077Z,4.50
2018-06-14T14:17:39.625Z,7.87
2018-06-14T14:20:08.137Z,7.97
2018-06-14T14:22:36.402Z,10.50
2018-06-14T14:25:05.785Z,5.50
2018-06-14T14:27:34.401Z,7.63
2018-06-14T14:30:02.978Z,5.10
2018-06-14T14:32:31.530Z,9.27
2018-06-14T14:35:00.055Z,10.23
2018-06-14T14:37:28.679Z,6.07
2018-06-14T14:39:57.252Z,7.63
2018-06-14T14:42:25.500Z,8.23
2018-06-14T14:44:53.721Z,8.73
2018-06-14T14:47:22.278Z,5.20
2018-06-14T14:49:50.806Z,7.07
2018-06-14T14:52:19.318Z,5.67
2018-06-14T14:54:47.813Z,6.50
2018-06-14T14:57:16.345Z,7.73
2018-06-14T14:59:44.863Z,6.13
2018-06-14T15:02:13.411Z,6.47
2018-06-14T15:04:41.903Z,5.93
2018-06-14T15:07:10.429Z,8.60
2018-06-14T15:09:38.976Z,7.20
2018-06-14T15:12:07.518Z,5.67
2018-06-14T15:14:35.694Z,5.77
2018-06-14T15:17:03.969Z,5.57
2018-06-14T15:19:32.212Z,8.67
2018-06-14T15:22:01.260Z,6.47
2018-06-14T15:24:29.767Z,5.87
2018-06-14T15:26:58.307Z,7.43
2018-06-14T15:29:26.518Z,3.73
2018-06-14T15:31:55.061Z,4.53
2018-06-14T15:34:23.275Z,7.70
2018-06-14T15:36:51.841Z,7.37
2018-06-14T15:39:20.970Z,6.03
2018-06-14T15:41:50.097Z,7.80
2018-06-14T15:44:18.653Z,6.67
2018-06-14T15:46:47.162Z,5.50
2018-06-14T15:49:15.737Z,6.40
2018-06-14T15:51:44.230Z,5.03
2018-06-14T15:54:16.269Z,8.50
2018-06-14T15:56:44.818Z,7.13
2018-06-14T15:59:15.302Z,5.60
2018-06-14T16:01:43.833Z,4.90
2018-06-14T16:04:12.391Z,4.00
2018-06-14T16:06:40.940Z,4.33
2018-06-14T16:09:10.970Z,6.03
2018-06-14T16:11:39.775Z,5.53
2018-06-14T16:14:08.443Z,11.57
2018-06-14T16:16:36.989Z,10.83
2018-06-14T16:19:05.993Z,7.30
2018-06-14T16:21:34.517Z,6.83
2018-06-14T16:24:03.094Z,8.83
2018-06-14T16:26:31.605Z,5.00
2018-06-14T16:28:59.862Z,9.47
2018-06-14T16:31:29.521Z,8.07
2018-06-14T16:33:58.054Z,6.10
2018-06-14T16:36:26.633Z,7.77
2018-06-14T16:38:56.465Z,6.87
2018-06-14T16:41:25.969Z,7.70
2018-06-14T16:43:55.067Z,8.23
2018-06-14T16:46:23.257Z,10.43
2018-06-14T16:48:51.469Z,6.07
2018-06-14T16:51:19.982Z,6.77
2018-06-14T16:53:48.521Z,6.90
2018-06-14T16:56:17.044Z,13.57
2018-06-14T16:58:45.627Z,6.10
2018-06-14T17:01:14.249Z,8.20
2018-06-14T17:03:43.370Z,6.60
2018-06-14T17:06:11.891Z,8.00
2018-06-14T17:08:40.450Z,8.23
2018-06-14T17:11:09.091Z,9.17
2018-06-14T17:13:37.316Z,8.07
2018-06-14T17:16:05.911Z,6.10
2018-06-14T17:18:34.404Z,5.93
2018-06-14T17:21:03.947Z,8.23
2018-06-14T17:23:32.134Z,8.73
2018-06-14T17:26:00.666Z,6.53
2018-06-14T17:28:30.114Z,5.90
2018-06-14T17:30:58.771Z,6.03
2018-06-14T17:33:27.270Z,13.63
2018-06-14T17:35:55.823Z,5.83
2018-06-14T17:38:25.510Z,8.57
2018-06-14T17:40:54.130Z,7.03
2018-06-14T17:43:22.745Z,9.97
2018-06-14T17:45:50.953Z,6.33
2018-06-14T17:48:19.466Z,4.83
2018-06-14T17:50:48.027Z,7.20
2018-06-14T17:53:16.589Z,4.23
2018-06-14T17:55:45.129Z,5.80
2018-06-14T17:58:13.658Z,7.00
2018-06-14T18:00:42.256Z,8.53
2018-06-14T18:03:10.733Z,8.23
2018-06-14T18:05:39.252Z,5.50
2018-06-14T18:08:07.921Z,6.17
2018-06-14T18:10:36.460Z,6.87
2018-06-14T18:13:04.655Z,8.37
2018-06-14T18:15:33.210Z,7.00
2018-06-14T18:18:01.412Z,3.97
2018-06-14T18:20:29.968Z,3.50
2018-06-14T18:22:58.156Z,6.37
2018-06-14T18:25:26.367Z,7.47
2018-06-14T18:27:54.870Z,4.87
2018-06-14T18:30:23.406Z,7.23
2018-06-14T18:32:51.952Z,7.00
2018-06-14T18:35:20.444Z,3.87
2018-06-14T18:37:49.005Z,3.77
2018-06-14T18:40:17.563Z,5.23
2018-06-14T18:42:46.141Z,4.53
2018-06-14T18:45:14.703Z,4.40
2018-06-14T18:47:44.049Z,5.80
2018-06-14T18:50:12.612Z,3.57
2018-06-14T18:52:41.317Z,6.30
2018-06-14T18:55:09.877Z,4.10
2018-06-14T18:57:38.385Z,5.70
2018-06-14T19:00:07.014Z,7.67
2018-06-14T19:02:35.193Z,3.27
2018-06-14T19:05:03.403Z,3.83
2018-06-14T19:07:31.957Z,3.97
2018-06-14T19:10:00.153Z,6.17
2018-06-14T19:12:28.686Z,4.63
2018-06-14T19:14:57.243Z,5.70
2018-06-14T19:17:25.827Z,3.47
2018-06-14T19:19:54.607Z,3.00
2018-06-14T19:22:23.296Z,3.83
2018-06-14T19:24:51.940Z,2.43
2018-06-14T19:27:20.312Z,7.43
2018-06-14T19:29:48.827Z,7.47
2018-06-14T19:32:17.357Z,4.20
2018-06-14T19:34:45.860Z,7.20
2018-06-14T19:37:14.423Z,9.70
2018-06-14T19:39:42.938Z,5.00
2018-06-14T19:42:11.157Z,4.27
2018-06-14T19:44:39.680Z,6.13
2018-06-14T19:47:08.214Z,5.47
2018-06-14T19:49:36.726Z,7.53
2018-06-14T19:52:05.268Z,6.70
2018-06-14T19:54:33.768Z,4.87
2018-06-14T19:57:02.305Z,12.97
2018-06-14T19:59:30.493Z,3.73
2018-06-14T20:01:58.689Z,4.73
2018-06-14T20:04:27.173Z,5.10
2018-06-14T20:06:55.706Z,8.20
2018-06-14T20:09:24.275Z,5.67
2018-06-14T20:11:52.962Z,5.00
2018-06-14T20:14:21.517Z,4.07
2018-06-14T20:16:50.090Z,6.20
2018-06-14T20:19:18.638Z,4.10
2018-06-14T20:21:47.186Z,4.57
2018-06-14T20:24:15.735Z,6.23
2018-06-14T20:26:44.293Z,4.90
2018-06-14T20:29:12.814Z,5.37
2018-06-14T20:31:41.341Z,6.30
2018-06-14T20:34:09.861Z,4.63
2018-06-14T20:36:38.121Z,4.40
2018-06-14T20:39:08.413Z,5.37
2018-06-14T20:41:37.085Z,3.73
2018-06-14T20:44:05.603Z,4.20
2018-06-14T20:46:34.163Z,3.37
2018-06-14T20:49:02.664Z,10.30
2018-06-14T20:51:31.213Z,5.33
2018-06-14T20:53:59.903Z,2.70
2018-06-14T20:56:28.484Z,4.50
2018-06-14T20:58:56.994Z,4.40
2018-06-14T21:01:25.522Z,3.33
2018-06-14T21:03:54.915Z,6.43
2018-06-14T21:06:23.104Z,3.70
2018-06-14T21:08:51.668Z,7.33
2018-06-14T21:11:19.904Z,4.20
2018-06-14T21:13:48.443Z,3.83
2018-06-14T21:16:17.430Z,5.33
2018-06-14T21:18:45.648Z,3.87
2018-06-14T21:21:14.163Z,6.23
2018-06-14T21:23:42.702Z,5.47
2018-06-14T21:26:12.201Z,5.43
2018-06-14T21:28:40.739Z,7.93
2018-06-14T21:31:09.233Z,4.23
2018-06-14T21:33:37.456Z,7.60
2018-06-14T21:36:05.959Z,5.43
2018-06-14T21:38:34.533Z,6.57
2018-06-14T21:41:03.039Z,5.60
2018-06-14T21:43:31.578Z,7.83
2018-06-14T21:46:00.083Z,7.83
2018-06-14T21:48:28.607Z,6.20
2018-06-14T21:50:56.788Z,5.23
2018-06-14T21:53:24.996Z,4.73
2018-06-14T21:55:53.507Z,7.33
2018-06-14T21:58:22.095Z,7.03
2018-06-14T22:00:50.642Z,4.77
2018-06-14T22:03:24.486Z,5.77
2018-06-14T22:05:53.624Z,7.37
2018-06-14T22:08:21.823Z,5.43
2018-06-14T22:10:50.343Z,6.23
2018-06-14T22:13:18.923Z,8.87
2018-06-14T22:15:47.434Z,8.40
2018-06-14T22:18:15.992Z,9.53
2018-06-14T22:20:44.501Z,10.77
2018-06-14T22:23:13.770Z,7.93
2018-06-14T22:25:42.353Z,7.87
2018-06-14T22:28:10.905Z,7.93
2018-06-14T22:30:39.406Z,9.20
2018-06-14T22:33:19.425Z,7.97
2018-06-14T22:35:47.957Z,7.37
2018-06-14T22:38:17.222Z,5.70
2018-06-14T22:40:45.759Z,6.13
2018-06-14T22:43:14.320Z,5.40
2018-06-14T22:45:42.821Z,6.50
2018-06-14T22:48:11.386Z,4.90
2018-06-14T22:50:51.146Z,5.13
2018-06-14T22:53:19.670Z,6.83
2018-06-14T22:55:48.405Z,6.23
2018-06-14T22:58:16.939Z,5.67
2018-06-14T23:01:50.388Z,5.60
2018-06-14T23:04:21.341Z,8.83
2018-06-14T23:06:50.016Z,5.07
2018-06-14T23:10:33.712Z,7.37
2018-06-14T23:13:02.821Z,7.10
2018-06-14T23:15:31.034Z,8.53
2018-06-14T23:17:59.833Z,6.10
2018-06-14T23:20:30.361Z,6.53
2018-06-14T23:23:00.489Z,5.40
2018-06-14T23:25:30.814Z,8.40
2018-06-14T23:27:59.359Z,9.20
2018-06-14T23:30:27.909Z,6.23
2018-06-14T23:32:56.784Z,6.27
2018-06-14T23:35:25.353Z,7.50
2018-06-14T23:37:53.916Z,9.37
2018-06-14T23:40:22.782Z,9.17
2018-06-14T23:42:51.277Z,5.93
2018-06-14T23:45:19.785Z,6.90
2018-06-14T23:47:48.314Z,7.27
2018-06-14T23:50:16.522Z,9.60
2018-06-14T23:52:45.031Z,9.00
2018-06-14T23:55:13.577Z,11.10
2018-06-14T23:57:42.081Z,7.23
